Time;durP1;ratioP1;P1;durP2;ratioP2;P2;SDS_P1;SDS_P2;PMS_P1;PMS_P2;Temp;Humidity;BMP_temperature;BMP_pressure;BME280_temperature;BME280_humidity;BME280_pressure;Samples;Min_cycle;Max_cycle;Signal;HPM_P1;HPM_P2
2022/06/03 00:00:21;;;;;;;6.20;3.70;;;20.40;66.50;;;;;;4975479;28;20212;-93
2022/06/03 00:03:25;;;;;;;5.33;3.47;;;20.30;67.00;;;;;;4958875;28;20698;-94
2022/06/03 00:06:27;;;;;;;5.80;3.43;;;20.10;67.50;;;;;;4973746;28;20190;-94
2022/06/03 00:09:09;;;;;;;4.00;3.40;;;20.00;67.80;;;;;;4973259;28;20178;-94
2022/06/03 00:12:11;;;;;;;5.07;3.87;;;20.10;67.70;;;;;;4974257;28;20184;-94
2022/06/03 00:15:05;;;;;;;3.60;3.20;;;20.20;67.20;;;;;;4957409;28;20185;-94
2022/06/03 00:17:42;;;;;;;4.17;3.40;;;20.30;67.40;;;;;;4957729;28;20201;-94
2022/06/03 00:20:31;;;;;;;4.37;3.33;;;20.40;67.50;;;;;;4973216;28;20725;-95
2022/06/03 00:23:21;;;;;;;4.53;3.50;;;20.40;67.40;;;;;;4976995;28;20181;-93
2022/06/03 00:26:08;;;;;;;5.00;3.70;;;20.00;68.40;;;;;;4975079;28;20181;-94
2022/06/03 00:29:05;;;;;;;7.27;3.80;;;19.80;68.60;;;;;;4976163;28;20194;-94
2022/06/03 00:31:37;;;;;;;5.53;3.93;;;19.80;69.10;;;;;;4964771;28;20189;-92
2022/06/03 00:34:27;;;;;;;4.47;3.40;;;19.70;69.20;;;;;;4968867;28;20297;-93
2022/06/03 00:37:10;;;;;;;7.43;3.80;;;19.60;69.90;;;;;;4967705;28;20188;-94
2022/06/03 00:39:58;;;;;;;8.20;3.80;;;19.70;69.60;;;;;;4976426;28;20184;-94
2022/06/03 00:42:45;;;;;;;6.80;4.20;;;19.70;69.70;;;;;;4976823;28;20246;-94
2022/06/03 00:45:37;;;;;;;5.20;4.13;;;19.70;69.70;;;;;;4972638;28;20297;-94
2022/06/03 00:48:17;;;;;;;4.30;3.90;;;19.70;69.60;;;;;;4992929;28;20187;-93
2022/06/03 00:51:01;;;;;;;9.27;3.87;;;19.70;69.50;;;;;;4975878;28;20175;-94
2022/06/03 00:53:59;;;;;;;5.30;4.00;;;19.40;70.60;;;;;;4976550;28;20180;-94
2022/06/03 00:56:28;;;;;;;6.07;3.80;;;19.30;70.80;;;;;;4973526;28;20276;-94
2022/06/03 00:59:05;;;;;;;6.07;4.10;;;19.40;71.10;;;;;;4980428;28;20196;-93
2022/06/03 01:01:59;;;;;;;5.40;3.80;;;19.40;70.70;;;;;;4980640;28;20189;-93
2022/06/03 01:04:41;;;;;;;5.97;3.93;;;19.20;71.80;;;;;;4980604;28;20212;-94
2022/06/03 01:07:23;;;;;;;5.40;3.60;;;19.10;71.70;;;;;;4968771;28;20234;-94
2022/06/03 01:10:07;;;;;;;3.90;3.50;;;18.80;72.90;;;;;;4963085;28;20286;-93
2022/06/03 01:12:52;;;;;;;4.10;3.70;;;18.70;73.60;;;;;;4963946;28;20185;-94
2022/06/03 01:15:29;;;;;;;8.23;3.50;;;18.60;74.10;;;;;;4963726;28;20185;-94
2022/06/03 01:18:04;;;;;;;7.60;3.97;;;18.50;74.10;;;;;;4987675;28;20184;-93
2022/06/03 01:20:39;;;;;;;6.43;3.40;;;18.60;73.80;;;;;;5002201;28;20168;-91
2022/06/03 01:23:19;;;;;;;6.10;3.60;;;18.60;74.10;;;;;;5002247;28;20216;-93
2022/06/03 01:26:20;;;;;;;4.23;3.70;;;18.50;74.80;;;;;;4976652;28;20183;-93
2022/06/03 01:29:25;;;;;;;5.67;3.80;;;18.30;75.20;;;;;;4968060;28;20188;-94
2022/06/03 01:32:13;;;;;;;4.63;4.10;;;18.40;74.90;;;;;;4962148;28;20191;-94
2022/06/03 01:34:44;;;;;;;5.60;4.00;;;18.40;75.20;;;;;;4960122;28;20172;-94
2022/06/03 01:37:15;;;;;;;5.80;3.73;;;18.30;75.10;;;;;;4970139;28;20191;-94
2022/06/03 01:39:54;;;;;;;6.33;3.97;;;18.40;75.00;;;;;;4977309;28;20299;-93
2022/06/03 01:42:50;;;;;;;4.63;4.17;;;18.30;75.40;;;;;;4979318;28;20238;-93
2022/06/03 01:45:29;;;;;;;4.73;3.83;;;18.30;75.60;;;;;;4979978;28;20190;-94
2022/06/03 01:48:00;;;;;;;6.93;4.27;;;18.10;76.20;;;;;;4972817;28;20211;-93
2022/06/03 01:50:48;;;;;;;4.57;3.27;;;18.10;76.40;;;;;;4967712;28;20173;-94
2022/06/03 01:53:29;;;;;;;3.80;3.50;;;17.90;77.20;;;;;;4959965;28;20551;-93
2022/06/03 01:56:08;;;;;;;4.87;3.70;;;17.70;77.80;;;;;;4978641;28;20179;-94
2022/06/03 01:59:14;;;;;;;4.23;3.57;;;17.90;78.00;;;;;;4977593;28;20218;-93
2022/06/03 02:02:19;;;;;;;9.20;4.00;;;18.20;77.10;;;;;;4972847;28;20180;-94
2022/06/03 02:05:07;;;;;;;5.33;3.90;;;17.90;78.30;;;;;;4959201;28;20718;-88
2022/06/03 02:07:41;;;;;;;7.20;3.80;;;17.60;79.20;;;;;;4962461;28;20187;-94
2022/06/03 02:10:37;;;;;;;4.90;4.07;;;17.40;80.10;;;;;;4978586;28;20243;-94
2022/06/03 02:13:05;;;;;;;4.77;4.00;;;17.40;79.70;;;;;;4979240;28;20190;-92
2022/06/03 02:15:34;;;;;;;5.43;3.83;;;17.30;79.60;;;;;;4979583;28;20269;-95
2022/06/03 02:18:26;;;;;;;5.10;4.13;;;17.30;80.10;;;;;;4971873;28;20475;-92
2022/06/03 02:21:14;;;;;;;4.20;3.77;;;17.40;80.60;;;;;;4959300;28;20188;-94
2022/06/03 02:23:52;;;;;;;6.10;4.20;;;17.40;80.80;;;;;;4959292;28;20210;-93
2022/06/03 02:26:37;;;;;;;4.20;3.80;;;17.40;81.00;;;;;;4959122;28;20654;-93
2022/06/03 02:32:18;;;;;;;4.23;3.70;;;17.00;82.70;;;;;;4980039;28;20201;-94
2022/06/03 02:34:58;;;;;;;3.93;3.53;;;17.10;83.00;;;;;;4971864;28;20175;-93
2022/06/03 02:37:46;;;;;;;5.07;4.00;;;17.50;81.80;;;;;;4978321;28;20566;-91
2022/06/03 02:40:49;;;;;;;3.97;3.57;;;17.20;83.10;;;;;;4959474;28;20175;-94
2022/06/03 02:43:44;;;;;;;5.87;4.10;;;17.10;84.50;;;;;;4978215;28;20214;-93
2022/06/03 02:46:33;;;;;;;5.27;3.33;;;17.20;83.90;;;;;;4978398;28;20554;-94
2022/06/03 02:49:28;;;;;;;5.00;4.10;;;17.10;84.80;;;;;;4972268;28;20281;-94
2022/06/03 02:52:32;;;;;;;5.93;3.87;;;17.00;85.40;;;;;;4977845;28;20266;-94
2022/06/03 02:55:07;;;;;;;4.40;3.70;;;17.00;85.90;;;;;;4977728;28;20200;-94
2022/06/03 02:57:59;;;;;;;4.83;3.70;;;17.00;86.00;;;;;;4977964;28;20232;-93
2022/06/03 03:01:00;;;;;;;4.63;3.80;;;16.90;86.70;;;;;;4960020;28;20623;-93
2022/06/03 03:03:44;;;;;;;6.40;4.27;;;17.20;85.30;;;;;;4978021;28;20254;-89
2022/06/03 03:06:33;;;;;;;5.90;4.13;;;17.40;84.70;;;;;;4958578;28;20178;-90
2022/06/03 03:09:25;;;;;;;4.77;4.30;;;17.30;84.70;;;;;;4969812;28;20185;-90
2022/06/03 03:12:23;;;;;;;6.20;4.50;;;17.10;84.80;;;;;;4977588;28;20208;-90
2022/06/03 03:15:07;;;;;;;4.63;4.07;;;16.80;85.90;;;;;;4977555;28;20189;-91
2022/06/03 03:17:52;;;;;;;5.23;3.93;;;17.00;85.90;;;;;;4975770;28;20225;-90
2022/06/03 03:20:36;;;;;;;7.87;4.37;;;17.30;85.10;;;;;;4958224;28;20277;-91
2022/06/03 03:23:50;;;;;;;5.90;4.50;;;16.90;86.10;;;;;;4977117;28;20611;-89
2022/06/03 03:26:40;;;;;;;4.57;4.10;;;16.70;87.60;;;;;;4927074;28;20178;-91
2022/06/03 03:29:33;;;;;;;4.30;3.90;;;16.40;89.50;;;;;;4965323;28;20229;-90
2022/06/03 03:32:08;;;;;;;6.03;4.03;;;16.50;90.40;;;;;;4957790;28;20244;-90
2022/06/03 03:34:36;;;;;;;5.43;4.10;;;16.60;89.40;;;;;;4958910;28;20204;-89
2022/06/03 03:37:29;;;;;;;8.67;5.03;;;16.50;90.40;;;;;;4958867;28;20285;-90
2022/06/03 03:40:07;;;;;;;5.73;4.47;;;16.40;90.60;;;;;;4958045;28;20178;-90
2022/06/03 03:43:03;;;;;;;7.60;4.43;;;16.20;91.00;;;;;;4958103;28;20336;-91
2022/06/03 03:46:06;;;;;;;5.87;4.30;;;16.10;91.60;;;;;;4957920;28;20218;-91
2022/06/03 03:48:38;;;;;;;5.63;4.60;;;16.10;92.00;;;;;;4975797;28;20186;-91
2022/06/03 03:51:18;;;;;;;5.60;4.77;;;16.10;92.30;;;;;;4961583;28;20186;-91
2022/06/03 03:54:16;;;;;;;6.53;4.27;;;16.00;92.40;;;;;;4957730;28;20183;-90
2022/06/03 03:57:16;;;;;;;5.43;4.40;;;16.10;92.70;;;;;;4960758;28;20170;-91
2022/06/03 04:00:29;;;;;;;6.73;4.53;;;16.10;92.60;;;;;;4976640;28;20182;-91
2022/06/03 04:03:10;;;;;;;6.27;4.27;;;16.10;93.00;;;;;;4949132;28;20190;-91
2022/06/03 04:05:57;;;;;;;8.40;5.57;;;16.10;93.30;;;;;;4957901;28;20190;-91
2022/06/03 04:08:46;;;;;;;8.77;5.13;;;16.00;93.30;;;;;;4973914;28;20190;-91
2022/06/03 04:11:31;;;;;;;4.97;4.10;;;16.20;92.80;;;;;;4976805;28;20197;-91
2022/06/03 04:14:08;;;;;;;5.37;4.47;;;16.10;93.30;;;;;;4976791;28;20228;-91
2022/06/03 04:17:01;;;;;;;5.50;4.07;;;16.20;93.50;;;;;;4969377;28;20174;-90
2022/06/03 04:19:40;;;;;;;6.10;4.63;;;16.20;93.30;;;;;;4959798;28;20198;-91
2022/06/03 04:22:30;;;;;;;4.73;4.33;;;16.20;93.90;;;;;;4957449;28;20537;-92
2022/06/03 04:25:17;;;;;;;5.43;4.27;;;16.00;94.20;;;;;;4957082;28;20233;-92
2022/06/03 04:28:01;;;;;;;6.63;5.03;;;16.00;94.50;;;;;;4967596;28;20406;-91
2022/06/03 04:30:45;;;;;;;6.50;4.90;;;16.00;94.70;;;;;;4979516;28;20194;-91
2022/06/03 04:33:26;;;;;;;8.60;4.90;;;16.00;95.00;;;;;;4979187;28;20201;-89
2022/06/03 04:36:29;;;;;;;10.17;4.93;;;16.10;95.00;;;;;;4980448;28;20178;-91
2022/06/03 04:39:22;;;;;;;6.50;4.63;;;16.10;94.80;;;;;;4961141;28;20242;-91
2022/06/03 04:41:51;;;;;;;7.47;4.50;;;16.10;95.40;;;;;;4960969;28;20242;-89
2022/06/03 04:44:51;;;;;;;7.63;5.20;;;16.10;95.60;;;;;;4960869;28;20217;-90
2022/06/03 04:47:54;;;;;;;8.27;5.17;;;16.20;95.30;;;;;;4936198;29;20185;-90
2022/06/03 04:51:07;;;;;;;7.37;5.47;;;16.30;95.10;;;;;;4961059;28;20189;-91
2022/06/03 04:53:41;;;;;;;9.87;5.30;;;16.70;94.00;;;;;;4953344;28;20674;-91
2022/06/03 04:56:29;;;;;;;8.63;5.50;;;16.80;93.80;;;;;;4993158;28;20654;-91
2022/06/03 04:59:19;;;;;;;6.67;5.53;;;16.90;93.70;;;;;;4979821;28;20194;-91
2022/06/03 05:02:03;;;;;;;6.30;5.30;;;16.90;93.50;;;;;;4968578;28;20182;-90
2022/06/03 05:05:14;;;;;;;7.63;5.47;;;16.90;93.50;;;;;;4960868;28;20210;-91
2022/06/03 05:08:12;;;;;;;7.07;5.80;;;17.00;93.50;;;;;;4939633;28;20181;-91
2022/06/03 05:11:05;;;;;;;6.97;5.63;;;17.20;93.20;;;;;;4964502;28;20648;-90
2022/06/03 05:14:08;;;;;;;6.77;5.47;;;17.20;93.10;;;;;;4980337;28;20188;-90
2022/06/03 05:17:13;;;;;;;6.27;5.67;;;17.30;93.00;;;;;;4962145;28;20265;-90
2022/06/03 05:20:00;;;;;;;9.47;5.97;;;17.30;92.90;;;;;;4977543;28;20221;-91
2022/06/03 05:22:34;;;;;;;10.03;5.93;;;17.40;92.20;;;;;;4969417;28;20245;-90
2022/06/03 05:25:09;;;;;;;8.90;5.47;;;17.40;92.30;;;;;;4968965;28;20217;-90
2022/06/03 05:28:11;;;;;;;6.57;4.83;;;17.40;92.40;;;;;;4962573;28;20254;-90
2022/06/03 05:31:13;;;;;;;6.30;5.27;;;17.50;92.30;;;;;;4960537;28;20198;-90
2022/06/03 05:33:57;;;;;;;6.43;4.90;;;17.50;92.30;;;;;;4960689;28;20279;-91
2022/06/03 05:36:44;;;;;;;6.50;5.13;;;17.60;92.30;;;;;;4976521;28;20187;-91
2022/06/03 05:39:28;;;;;;;8.43;5.20;;;17.70;92.10;;;;;;4968093;28;20180;-90
2022/06/03 05:42:24;;;;;;;11.00;5.50;;;17.60;92.10;;;;;;4961096;28;20268;-90
2022/06/03 05:45:39;;;;;;;7.00;5.10;;;17.70;91.60;;;;;;4961340;28;20663;-88
2022/06/03 05:48:18;;;;;;;6.30;5.70;;;17.90;91.70;;;;;;4970334;28;20175;-92
2022/06/03 07:48:01;;;;;;;7.60;4.20;;;21.40;84.70;;;;;;5437384;23;20727;-89
2022/06/03 07:50:30;;;;;;;6.57;3.63;;;21.40;84.80;;;;;;4977064;28;20634;-91
2022/06/03 07:52:59;;;;;;;6.60;3.20;;;21.30;84.50;;;;;;4988206;28;20203;-91
2022/06/03 07:55:27;;;;;;;5.07;3.67;;;21.40;85.90;;;;;;4987423;28;20205;-91
2022/06/03 07:58:02;;;;;;;6.20;3.57;;;21.40;84.40;;;;;;4973749;28;20186;-91
2022/06/03 08:00:28;;;;;;;5.03;3.33;;;21.60;83.70;;;;;;4957626;28;20585;-91
2022/06/03 08:03:12;;;;;;;4.03;3.47;;;21.70;84.90;;;;;;4964657;28;20182;-91
2022/06/03 08:05:39;;;;;;;3.80;3.37;;;21.70;83.30;;;;;;4964802;28;20186;-90
2022/06/03 08:11:10;;;;;;;3.57;3.23;;;21.80;83.90;;;;;;4990014;28;20209;-91
2022/06/03 08:13:39;;;;;;;5.87;3.40;;;21.70;82.50;;;;;;4971462;28;20727;-91
2022/06/03 08:16:11;;;;;;;8.00;3.60;;;21.80;82.50;;;;;;4985887;28;20202;-91
2022/06/03 08:18:42;;;;;;;5.07;3.47;;;22.00;82.40;;;;;;4990609;28;20186;-91
2022/06/03 08:21:13;;;;;;;5.20;3.07;;;22.00;81.50;;;;;;4976365;28;20181;-91
2022/06/03 08:23:39;;;;;;;5.17;3.10;;;21.90;82.10;;;;;;4974228;28;20225;-91
2022/06/03 08:26:11;;;;;;;4.53;3.17;;;22.00;81.80;;;;;;4971391;28;20657;-91
2022/06/03 08:28:43;;;;;;;5.00;2.97;;;22.00;82.00;;;;;;4968989;28;20189;-91
2022/06/03 08:31:10;;;;;;;6.70;3.30;;;22.10;81.90;;;;;;4963292;28;20182;-92
2022/06/03 08:33:50;;;;;;;3.83;2.67;;;22.30;81.70;;;;;;4977880;28;20557;-91
2022/06/03 08:36:23;;;;;;;4.40;2.70;;;22.20;81.00;;;;;;4994999;28;20180;-91
2022/06/03 08:38:57;;;;;;;5.00;2.83;;;22.20;81.00;;;;;;4985424;28;20178;-91
2022/06/03 08:41:25;;;;;;;6.77;2.80;;;22.20;81.30;;;;;;4956104;28;20207;-91
2022/06/03 08:44:08;;;;;;;4.83;2.23;;;22.30;81.00;;;;;;4974027;28;20213;-91
2022/06/03 08:46:55;;;;;;;4.10;2.53;;;22.30;81.60;;;;;;4969862;28;20178;-91
2022/06/03 08:49:27;;;;;;;6.50;2.60;;;22.40;81.30;;;;;;4956842;28;20186;-91
2022/06/03 08:52:05;;;;;;;5.33;2.50;;;22.40;81.30;;;;;;4956790;28;20178;-91
2022/06/03 08:54:36;;;;;;;4.27;2.43;;;22.40;82.20;;;;;;4957464;28;20193;-92
2022/06/03 08:57:20;;;;;;;3.77;2.40;;;22.50;81.80;;;;;;4955757;28;20179;-92
2022/06/03 08:59:55;;;;;;;6.70;2.20;;;22.60;81.50;;;;;;4952888;28;20633;-91
2022/06/03 09:02:44;;;;;;;6.10;2.23;;;22.70;80.60;;;;;;4955650;28;20627;-91
2022/06/03 09:05:23;;;;;;;2.90;1.80;;;22.80;80.30;;;;;;4956541;28;20656;-91
2022/06/03 09:08:04;;;;;;;3.37;1.73;;;22.90;79.80;;;;;;4955546;28;20187;-91
2022/06/03 09:10:44;;;;;;;3.47;1.73;;;22.90;79.60;;;;;;4954586;28;20225;-92
2022/06/03 09:13:18;;;;;;;1.47;1.37;;;23.10;77.50;;;;;;4956856;28;20273;-92
2022/06/03 09:15:46;;;;;;;3.90;1.50;;;23.00;78.50;;;;;;4958440;28;20186;-91
2022/06/03 09:18:25;;;;;;;4.37;1.63;;;23.20;77.90;;;;;;4943894;29;20211;-91
2022/06/03 09:21:01;;;;;;;3.57;1.50;;;23.20;78.20;;;;;;4945539;28;20179;-92
2022/06/03 09:23:29;;;;;;;2.17;1.60;;;23.30;77.90;;;;;;4979542;28;20296;-91
2022/06/03 09:25:58;;;;;;;4.63;1.37;;;23.40;77.70;;;;;;4979301;28;20174;-91
2022/06/03 09:28:33;;;;;;;2.93;1.43;;;23.60;77.00;;;;;;4964052;28;20207;-91
2022/06/03 09:31:02;;;;;;;4.87;1.50;;;23.70;77.10;;;;;;4959808;28;20174;-91
2022/06/03 09:33:29;;;;;;;3.77;1.77;;;23.80;76.90;;;;;;4960123;28;20179;-91
2022/06/03 09:35:58;;;;;;;3.50;1.30;;;23.90;76.10;;;;;;4959636;28;20183;-92
2022/06/03 09:38:28;;;;;;;2.30;1.30;;;23.90;76.80;;;;;;4951593;28;20180;-92
2022/06/03 09:40:59;;;;;;;1.87;1.47;;;23.90;76.60;;;;;;4941553;29;20234;-91
2022/06/03 09:43:38;;;;;;;3.77;1.33;;;24.10;76.30;;;;;;4958084;28;20261;-92
2022/06/03 09:46:08;;;;;;;2.57;1.53;;;24.10;76.00;;;;;;4963822;28;20194;-91
2022/06/03 09:48:36;;;;;;;2.40;1.30;;;24.20;75.20;;;;;;4956686;29;20270;-91
2022/06/03 09:52:08;;;;;;;3.10;1.70;;;24.40;75.70;;;;;;4945370;29;20215;-92
2022/06/03 09:54:12;;;;;;;3.77;1.90;;;24.40;75.00;;;;;;4947338;28;20222;-91
2022/06/03 09:56:40;;;;;;;3.50;1.30;;;24.60;74.00;;;;;;4940490;29;20171;-90
2022/06/03 09:59:08;;;;;;;4.20;1.40;;;24.60;72.70;;;;;;4940649;29;20181;-91
2022/06/03 10:01:34;;;;;;;1.33;1.20;;;24.70;73.50;;;;;;4959839;28;20349;-91
2022/06/03 10:04:05;;;;;;;3.53;1.63;;;24.80;71.70;;;;;;4978706;28;20728;-91
2022/06/03 10:17:46;;;;;;;2.43;1.30;;;25.30;70.40;;;;;;4982541;28;20253;-91
2022/06/03 10:20:11;;;;;;;1.83;1.50;;;25.40;69.00;;;;;;4978319;28;20224;-91
2022/06/03 10:22:37;;;;;;;2.23;1.30;;;25.50;68.50;;;;;;4955610;28;20699;-92
2022/06/03 10:25:04;;;;;;;2.13;1.20;;;25.50;68.20;;;;;;4953333;28;20214;-91
2022/06/03 10:27:30;;;;;;;2.73;1.30;;;25.60;69.60;;;;;;4946812;28;20245;-91
2022/06/03 10:30:03;;;;;;;5.13;1.23;;;25.90;67.90;;;;;;4941868;28;20187;-91
2022/06/03 10:32:29;;;;;;;3.90;1.30;;;26.10;67.70;;;;;;4951370;28;20632;-91
2022/06/03 10:35:13;;;;;;;3.53;1.40;;;26.20;67.10;;;;;;4958856;28;20185;-91
2022/06/03 10:37:50;;;;;;;3.50;1.33;;;26.40;66.80;;;;;;4958331;28;20233;-91
2022/06/03 10:40:16;;;;;;;13.27;2.07;;;26.50;66.10;;;;;;4958741;28;20202;-91
2022/06/03 10:42:46;;;;;;;3.67;1.17;;;26.40;66.70;;;;;;4958355;28;20182;-91
2022/06/03 10:45:12;;;;;;;3.07;1.43;;;26.70;65.60;;;;;;4958658;28;20241;-91
2022/06/03 10:47:40;;;;;;;1.83;1.20;;;26.70;65.10;;;;;;4940321;29;20259;-91
2022/06/03 10:50:38;;;;;;;1.63;1.07;;;26.70;65.00;;;;;;4939381;29;20206;-91
2022/06/03 11:01:54;;;;;;;2.50;1.50;;;27.20;63.20;;;;;;4976043;28;20189;-91
2022/06/03 11:04:24;;;;;;;4.13;1.53;;;27.30;62.90;;;;;;4955568;28;20203;-91
2022/06/03 11:06:50;;;;;;;1.40;0.97;;;27.40;63.90;;;;;;4958495;28;20206;-91
2022/06/03 11:09:17;;;;;;;1.30;1.20;;;27.60;64.00;;;;;;4940347;29;20652;-89
2022/06/03 11:11:44;;;;;;;4.47;1.43;;;27.80;62.40;;;;;;4939238;29;20254;-91
2022/06/03 11:14:22;;;;;;;3.13;1.40;;;27.90;63.00;;;;;;4938672;29;20249;-91
2022/06/03 11:16:58;;;;;;;1.33;1.20;;;28.10;62.10;;;;;;4947461;28;20190;-91
2022/06/03 11:19:24;;;;;;;3.27;1.10;;;28.20;62.00;;;;;;4957813;28;20190;-91
2022/06/03 11:22:12;;;;;;;2.17;1.33;;;28.30;62.80;;;;;;4958398;28;20285;-91
2022/06/03 11:24:39;;;;;;;1.77;1.07;;;28.50;61.40;;;;;;4953344;29;20211;-91
2022/06/03 11:27:10;;;;;;;1.97;1.03;;;28.70;61.20;;;;;;4943540;28;20187;-91
2022/06/03 11:29:39;;;;;;;1.47;1.20;;;28.80;60.80;;;;;;4938703;29;20222;-91
2022/06/03 11:32:09;;;;;;;1.97;1.10;;;28.90;60.80;;;;;;4955350;28;20174;-91
2022/06/03 11:34:38;;;;;;;2.70;1.13;;;29.10;59.40;;;;;;4963987;28;20237;-91
2022/06/03 11:37:10;;;;;;;5.07;1.40;;;29.20;58.00;;;;;;4973683;28;20185;-91
2022/06/03 11:39:50;;;;;;;4.23;1.40;;;29.40;58.20;;;;;;4973109;28;20640;-91
2022/06/03 11:42:19;;;;;;;1.33;1.00;;;29.60;57.50;;;;;;4974013;28;20198;-91
2022/06/03 11:44:53;;;;;;;3.67;1.30;;;29.70;56.80;;;;;;4964228;28;20218;-91
2022/06/03 11:47:29;;;;;;;2.53;1.20;;;29.70;57.60;;;;;;4967103;28;20190;-91
2022/06/03 11:49:55;;;;;;;3.90;1.00;;;29.80;56.50;;;;;;4973766;28;20182;-91
2022/06/03 11:52:21;;;;;;;1.30;1.00;;;29.80;56.90;;;;;;4974085;28;20241;-91
2022/06/03 11:54:54;;;;;;;2.17;1.07;;;30.10;57.40;;;;;;4958947;28;20178;-92
2022/06/03 11:57:20;;;;;;;6.13;1.35;;;30.50;56.80;;;;;;4950361;29;20543;-91
2022/06/03 11:59:58;;;;;;;1.15;0.95;;;30.90;55.70;;;;;;4951443;28;20238;-92
2022/06/03 12:02:34;;;;;;;1.35;1.17;;;31.20;56.70;;;;;;4957273;28;20197;-91
2022/06/03 12:05:05;;;;;;;3.95;1.23;;;31.60;54.40;;;;;;4957498;28;20198;-91
2022/06/03 12:07:47;;;;;;;2.88;1.00;;;31.90;53.80;;;;;;4946825;28;20210;-91
2022/06/03 12:10:40;;;;;;;2.08;1.00;;;31.80;54.20;;;;;;4966632;28;20190;-91
2022/06/03 12:13:21;;;;;;;2.22;1.42;;;31.70;53.10;;;;;;4972196;28;20206;-91
2022/06/03 12:15:58;;;;;;;1.35;0.90;;;31.60;53.20;;;;;;4940035;29;20175;-91
2022/06/03 12:18:37;;;;;;;1.77;1.00;;;31.30;53.10;;;;;;4956591;28;20198;-92
2022/06/03 12:21:14;;;;;;;2.00;1.17;;;30.90;53.60;;;;;;4957337;28;20190;-92
2022/06/03 12:23:43;;;;;;;1.97;1.10;;;30.80;54.20;;;;;;4957135;28;20238;-91
2022/06/03 12:26:29;;;;;;;2.67;1.30;;;30.80;54.70;;;;;;4957267;28;20620;-92
2022/06/03 12:29:01;;;;;;;3.58;1.05;;;31.20;53.80;;;;;;4953153;28;20187;-92
2022/06/03 12:31:35;;;;;;;1.77;0.93;;;31.70;53.30;;;;;;4937792;29;20179;-91
2022/06/03 12:34:03;;;;;;;2.42;0.88;;;32.10;52.80;;;;;;4938371;29;20182;-92
2022/06/03 12:36:35;;;;;;;1.10;1.00;;;32.30;53.00;;;;;;4949957;28;20186;-91
2022/06/03 12:39:05;;;;;;;1.63;0.98;;;32.60;52.30;;;;;;4957035;28;20241;-91
2022/06/03 12:41:45;;;;;;;1.38;0.90;;;32.80;51.80;;;;;;4956714;28;20203;-91
2022/06/03 12:44:34;;;;;;;3.13;1.10;;;32.40;51.60;;;;;;4957081;28;20301;-90
2022/06/03 12:47:18;;;;;;;3.22;1.17;;;32.40;53.00;;;;;;4940511;28;20179;-91
2022/06/03 12:49:44;;;;;;;3.95;1.55;;;32.70;52.60;;;;;;4938241;29;20547;-91
2022/06/03 12:52:20;;;;;;;2.13;1.30;;;32.90;52.10;;;;;;4941930;29;20197;-90
2022/06/03 12:55:14;;;;;;;2.30;1.30;;;33.00;51.40;;;;;;4942178;29;20190;-92
2022/06/03 12:58:03;;;;;;;2.35;1.17;;;32.70;51.70;;;;;;4941657;29;20187;-90
2022/06/03 13:00:32;;;;;;;1.75;1.00;;;32.50;51.50;;;;;;4941889;29;20659;-90
2022/06/03 13:03:01;;;;;;;1.63;1.10;;;32.70;51.60;;;;;;4942170;29;20266;-90
2022/06/03 13:05:40;;;;;;;2.45;1.00;;;33.00;51.90;;;;;;4941680;28;20244;-91
2022/06/03 13:09:34;;;;;;;1.55;1.30;;;33.30;52.10;;;;;;4941975;29;20266;-90
2022/06/03 13:11:23;;;;;;;3.00;1.10;;;33.70;52.40;;;;;;4958417;28;20656;-90
2022/06/03 13:13:55;;;;;;;5.82;1.20;;;33.90;52.00;;;;;;4941337;28;20179;-91
2022/06/03 13:16:39;;;;;;;1.95;0.90;;;34.30;51.90;;;;;;4941591;29;20182;-90
2022/06/03 13:19:14;;;;;;;3.97;1.23;;;34.90;50.60;;;;;;4941624;29;20183;-90
2022/06/03 13:21:58;;;;;;;2.50;1.05;;;35.20;50.80;;;;;;4941326;29;20182;-91
2022/06/03 13:24:28;;;;;;;3.70;1.27;;;35.70;49.70;;;;;;4941393;29;20211;-90
2022/06/03 13:27:25;;;;;;;2.92;1.15;;;36.00;49.10;;;;;;4940973;29;20193;-91
2022/06/03 13:29:55;;;;;;;2.65;1.17;;;36.00;48.60;;;;;;4941760;29;20230;-90
2022/06/03 13:32:36;;;;;;;1.20;1.10;;;35.70;48.60;;;;;;4941309;29;20187;-91
2022/06/03 13:35:27;;;;;;;2.58;0.93;;;35.40;49.20;;;;;;4941589;29;20186;-90
2022/06/03 13:37:56;;;;;;;2.30;1.27;;;34.70;49.80;;;;;;4940981;29;20183;-90
2022/06/03 13:40:24;;;;;;;3.40;1.08;;;34.40;49.80;;;;;;4941993;29;20545;-91
2022/06/03 13:43:10;;;;;;;2.50;0.95;;;34.20;50.10;;;;;;4943327;29;20179;-91
2022/06/03 13:45:53;;;;;;;2.85;1.20;;;33.90;50.50;;;;;;4939843;29;20183;-91
2022/06/03 13:48:56;;;;;;;3.40;1.05;;;33.80;50.70;;;;;;4952656;29;20206;-90
2022/06/03 13:51:21;;;;;;;1.38;1.00;;;33.70;50.90;;;;;;4948287;29;20198;-91
2022/06/03 13:53:55;;;;;;;2.15;0.98;;;33.40;50.30;;;;;;4941254;29;20218;-91
2022/06/03 13:56:24;;;;;;;3.30;1.10;;;33.20;50.80;;;;;;4940931;29;20222;-90
2022/06/03 13:58:50;;;;;;;1.83;1.30;;;32.70;51.10;;;;;;4940805;29;20282;-91
2022/06/03 14:01:42;;;;;;;2.22;1.27;;;32.50;52.00;;;;;;4940517;29;20183;-91
2022/06/03 14:04:20;;;;;;;3.05;1.42;;;32.40;52.20;;;;;;4940460;29;20219;-90
2022/06/03 14:06:58;;;;;;;3.33;1.30;;;32.10;51.70;;;;;;4940867;29;20175;-91
2022/06/03 14:09:27;;;;;;;1.92;1.17;;;31.80;52.20;;;;;;4940384;29;20234;-91
2022/06/03 14:12:14;;;;;;;2.58;1.08;;;31.70;52.00;;;;;;4940718;29;20679;-91
2022/06/03 14:15:06;;;;;;;7.43;1.38;;;31.50;52.30;;;;;;4940777;29;20202;-90
2022/06/03 14:17:58;;;;;;;2.17;1.00;;;31.50;52.60;;;;;;4940067;29;20191;-90
2022/06/03 14:20:33;;;;;;;1.45;1.10;;;31.50;52.40;;;;;;4940760;28;20175;-90
2022/06/03 14:23:17;;;;;;;1.63;1.40;;;31.60;52.70;;;;;;4940721;29;20218;-91
2022/06/03 14:25:51;;;;;;;2.35;1.05;;;31.40;51.70;;;;;;4940348;29;20195;-91
2022/06/03 14:28:43;;;;;;;3.97;1.40;;;31.60;52.20;;;;;;4940446;29;20190;-90
2022/06/03 14:31:25;;;;;;;2.05;0.95;;;31.70;52.40;;;;;;4940070;28;20632;-90
2022/06/03 14:34:01;;;;;;;2.03;0.90;;;32.50;52.50;;;;;;4939861;29;20187;-91
2022/06/03 14:36:27;;;;;;;2.55;1.10;;;33.30;50.90;;;;;;4940035;29;20545;-91
2022/06/03 14:39:11;;;;;;;1.35;1.10;;;33.80;50.80;;;;;;4940135;29;20183;-90
2022/06/03 14:41:40;;;;;;;2.28;0.98;;;34.40;50.40;;;;;;4940086;28;20286;-90
2022/06/03 14:44:11;;;;;;;1.88;1.08;;;34.70;50.80;;;;;;4939637;29;20219;-90
2022/06/03 14:47:22;;;;;;;1.58;1.10;;;35.20;49.60;;;;;;4939874;29;20190;-90
2022/06/03 14:50:10;;;;;;;1.20;1.02;;;35.50;49.10;;;;;;4879092;29;20273;-92
2022/06/03 14:53:14;;;;;;;2.78;1.13;;;35.80;48.80;;;;;;4863754;29;20284;-90
2022/06/03 14:55:59;;;;;;;2.22;0.93;;;36.00;48.70;;;;;;4930870;29;20226;-92
2022/06/03 14:58:40;;;;;;;1.85;1.30;;;36.50;47.80;;;;;;4939391;29;20222;-90
2022/06/03 15:01:30;;;;;;;3.55;1.00;;;37.10;47.30;;;;;;4939490;29;20647;-90
2022/06/03 15:04:08;;;;;;;5.18;1.10;;;37.60;47.60;;;;;;4939289;29;20207;-90
2022/06/03 15:06:33;;;;;;;3.30;1.00;;;37.90;47.20;;;;;;4939786;28;20187;-91
2022/06/03 15:09:20;;;;;;;2.70;1.30;;;38.40;46.90;;;;;;4939477;29;20592;-90
2022/06/03 15:11:50;;;;;;;3.38;1.17;;;38.80;46.30;;;;;;4939798;29;20278;-90
2022/06/03 15:14:24;;;;;;;2.08;1.10;;;39.00;45.90;;;;;;4938993;29;20253;-90
2022/06/03 15:16:59;;;;;;;6.25;1.13;;;39.00;46.10;;;;;;4939462;28;20191;-90
2022/06/03 15:19:50;;;;;;;2.78;1.00;;;38.90;46.30;;;;;;4939607;29;20182;-90
2022/06/03 15:22:39;;;;;;;4.10;1.15;;;38.70;46.10;;;;;;4930226;29;20326;-91
2022/06/03 15:25:29;;;;;;;1.20;1.10;;;38.20;46.40;;;;;;4939318;29;20687;-90
2022/06/03 15:28:09;;;;;;;2.47;1.15;;;37.90;46.50;;;;;;4939888;29;20190;-90
2022/06/03 15:30:37;;;;;;;2.00;1.30;;;37.40;47.10;;;;;;4939771;29;20218;-90
2022/06/03 15:33:16;;;;;;;2.42;1.30;;;37.00;47.10;;;;;;4940505;29;20175;-90
2022/06/03 15:35:44;;;;;;;1.40;1.30;;;36.50;47.50;;;;;;4939744;29;20183;-91
2022/06/03 15:38:14;;;;;;;1.50;1.23;;;36.30;47.30;;;;;;4939428;29;20587;-93
2022/06/03 15:40:41;;;;;;;3.22;1.30;;;36.40;47.90;;;;;;4938763;29;20195;-92
2022/06/03 15:43:34;;;;;;;1.73;1.40;;;36.50;47.60;;;;;;4938999;29;20213;-92
2022/06/03 15:46:00;;;;;;;1.83;1.30;;;36.40;47.80;;;;;;4938867;28;20194;-93
2022/06/03 15:48:28;;;;;;;2.47;1.63;;;36.20;47.90;;;;;;4939162;29;20658;-92
2022/06/03 15:51:23;;;;;;;2.13;1.48;;;36.20;48.00;;;;;;4938718;29;20187;-93
2022/06/03 15:53:58;;;;;;;2.83;1.55;;;36.00;47.90;;;;;;4922791;29;20179;-92
2022/06/03 15:56:42;;;;;;;2.90;1.70;;;35.70;48.10;;;;;;4938412;29;20174;-92
2022/06/03 15:59:28;;;;;;;2.63;1.52;;;35.40;48.10;;;;;;4938709;29;20265;-93
2022/06/03 16:02:21;;;;;;;3.17;1.42;;;35.00;47.80;;;;;;4938879;29;20209;-93
2022/06/03 16:04:59;;;;;;;2.05;1.40;;;34.40;48.20;;;;;;4938253;28;20215;-92
2022/06/03 16:07:35;;;;;;;3.25;1.45;;;34.00;48.50;;;;;;4938510;29;20175;-92
2022/06/03 16:10:26;;;;;;;1.48;1.23;;;33.50;48.90;;;;;;4938751;29;20229;-93
2022/06/03 16:13:10;;;;;;;4.20;1.60;;;33.20;48.90;;;;;;4938607;29;20191;-93
2022/06/03 16:16:02;;;;;;;2.88;1.40;;;33.10;49.50;;;;;;4938697;29;20190;-92
2022/06/03 16:19:01;;;;;;;2.67;1.40;;;33.00;49.20;;;;;;4938257;29;20662;-92